sensor_id;sensor_type;location;lat;lon;timestamp;P1;durP1;ratioP1;P2;durP2;ratioP2
19965;SDS011;10144;50.874;4.762;2023-12-07T00:01:11;655.37;;;34.47;;
19965;SDS011;10144;50.874;4.762;2023-12-07T00:03:40;628.10;;;32.67;;
19965;SDS011;10144;50.874;4.762;2023-12-07T00:06:05;611.77;;;34.03;;
19965;SDS011;10144;50.874;4.762;2023-12-07T00:08:50;580.03;;;32.77;;
19965;SDS011;10144;50.874;4.762;2023-12-07T00:14:05;569.47;;;31.03;;
19965;SDS011;10144;50.874;4.762;2023-12-07T00:16:33;722.70;;;37.37;;
19965;SDS011;10144;50.874;4.762;2023-12-07T00:18:59;717.70;;;38.33;;
19965;SDS011;10144;50.874;4.762;2023-12-07T00:21:26;540.37;;;29.63;;
19965;SDS011;10144;50.874;4.762;2023-12-07T00:23:55;628.23;;;31.47;;
19965;SDS011;10144;50.874;4.762;2023-12-07T00:26:21;619.23;;;31.37;;
19965;SDS011;10144;50.874;4.762;2023-12-07T00:28:50;675.77;;;32.07;;
19965;SDS011;10144;50.874;4.762;2023-12-07T00:31:18;732.13;;;42.40;;
19965;SDS011;10144;50.874;4.762;2023-12-07T00:33:45;923.43;;;47.27;;
19965;SDS011;10144;50.874;4.762;2023-12-07T00:36:14;697.80;;;32.93;;
19965;SDS011;10144;50.874;4.762;2023-12-07T00:38:43;636.63;;;31.60;;
19965;SDS011;10144;50.874;4.762;2023-12-07T00:41:08;568.27;;;30.17;;
19965;SDS011;10144;50.874;4.762;2023-12-07T00:48:40;576.00;;;30.20;;
19965;SDS011;10144;50.874;4.762;2023-12-07T00:51:05;466.07;;;25.13;;
19965;SDS011;10144;50.874;4.762;2023-12-07T00:53:35;585.00;;;29.73;;
19965;SDS011;10144;50.874;4.762;2023-12-07T00:56:02;594.23;;;32.27;;
19965;SDS011;10144;50.874;4.762;2023-12-07T00:58:31;808.23;;;41.23;;
19965;SDS011;10144;50.874;4.762;2023-12-07T01:06:05;733.73;;;41.57;;
19965;SDS011;10144;50.874;4.762;2023-12-07T01:08:32;741.87;;;42.60;;
19965;SDS011;10144;50.874;4.762;2023-12-07T01:13:27;844.30;;;51.03;;
19965;SDS011;10144;50.874;4.762;2023-12-07T01:15:59;705.83;;;42.87;;
19965;SDS011;10144;50.874;4.762;2023-12-07T01:18:25;633.93;;;36.97;;
19965;SDS011;10144;50.874;4.762;2023-12-07T01:20:55;610.57;;;32.40;;
19965;SDS011;10144;50.874;4.762;2023-12-07T01:23:21;663.23;;;37.27;;
19965;SDS011;10144;50.874;4.762;2023-12-07T01:25:50;692.43;;;35.90;;
19965;SDS011;10144;50.874;4.762;2023-12-07T01:30:47;607.50;;;31.47;;
19965;SDS011;10144;50.874;4.762;2023-12-07T01:33:18;733.77;;;36.47;;
19965;SDS011;10144;50.874;4.762;2023-12-07T01:35:46;746.87;;;39.30;;
19965;SDS011;10144;50.874;4.762;2023-12-07T01:38:14;735.03;;;49.27;;
19965;SDS011;10144;50.874;4.762;2023-12-07T01:40:43;510.73;;;27.83;;
19965;SDS011;10144;50.874;4.762;2023-12-07T01:45:41;562.90;;;32.53;;
19965;SDS011;10144;50.874;4.762;2023-12-07T01:50:36;708.87;;;38.07;;
19965;SDS011;10144;50.874;4.762;2023-12-07T01:55:35;867.87;;;46.70;;
19965;SDS011;10144;50.874;4.762;2023-12-07T01:58:07;779.07;;;47.67;;
19965;SDS011;10144;50.874;4.762;2023-12-07T02:00:34;826.20;;;49.07;;
19965;SDS011;10144;50.874;4.762;2023-12-07T02:03:04;927.00;;;55.43;;
19965;SDS011;10144;50.874;4.762;2023-12-07T02:05:33;793.33;;;48.43;;
19965;SDS011;10144;50.874;4.762;2023-12-07T02:08:04;674.93;;;39.03;;
19965;SDS011;10144;50.874;4.762;2023-12-07T02:10:30;968.80;;;54.03;;
19965;SDS011;10144;50.874;4.762;2023-12-07T02:12:57;749.60;;;37.53;;
19965;SDS011;10144;50.874;4.762;2023-12-07T02:15:24;799.97;;;44.40;;
19965;SDS011;10144;50.874;4.762;2023-12-07T02:23:57;670.20;;;36.87;;
19965;SDS011;10144;50.874;4.762;2023-12-07T02:28:57;476.60;;;30.53;;
19965;SDS011;10144;50.874;4.762;2023-12-07T02:31:28;598.20;;;35.87;;
19965;SDS011;10144;50.874;4.762;2023-12-07T02:33:56;618.77;;;37.77;;
19965;SDS011;10144;50.874;4.762;2023-12-07T02:36:25;712.50;;;42.20;;
19965;SDS011;10144;50.874;4.762;2023-12-07T02:38:54;208.43;;;23.30;;
19965;SDS011;10144;50.874;4.762;2023-12-07T02:41:32;144.93;;;20.73;;
19965;SDS011;10144;50.874;4.762;2023-12-07T02:44:02;156.83;;;23.77;;
19965;SDS011;10144;50.874;4.762;2023-12-07T02:46:28;120.30;;;20.77;;
19965;SDS011;10144;50.874;4.762;2023-12-07T02:49:01;129.93;;;21.40;;
19965;SDS011;10144;50.874;4.762;2023-12-07T02:51:27;129.13;;;22.57;;
19965;SDS011;10144;50.874;4.762;2023-12-07T02:53:54;137.00;;;23.73;;
19965;SDS011;10144;50.874;4.762;2023-12-07T02:56:25;133.27;;;23.07;;
19965;SDS011;10144;50.874;4.762;2023-12-07T02:59:03;147.30;;;24.57;;
19965;SDS011;10144;50.874;4.762;2023-12-07T03:01:29;120.53;;;22.17;;
19965;SDS011;10144;50.874;4.762;2023-12-07T03:04:01;128.80;;;22.50;;
19965;SDS011;10144;50.874;4.762;2023-12-07T03:06:27;124.73;;;22.13;;
19965;SDS011;10144;50.874;4.762;2023-12-07T03:08:53;115.17;;;21.83;;
19965;SDS011;10144;50.874;4.762;2023-12-07T03:13:49;119.17;;;21.53;;
19965;SDS011;10144;50.874;4.762;2023-12-07T03:16:16;104.43;;;20.47;;
19965;SDS011;10144;50.874;4.762;2023-12-07T03:21:13;104.37;;;20.50;;
19965;SDS011;10144;50.874;4.762;2023-12-07T03:26:10;107.07;;;20.50;;
19965;SDS011;10144;50.874;4.762;2023-12-07T03:31:05;92.00;;;19.40;;
19965;SDS011;10144;50.874;4.762;2023-12-07T03:33:35;91.60;;;18.13;;
19965;SDS011;10144;50.874;4.762;2023-12-07T03:36:01;85.10;;;18.43;;
19965;SDS011;10144;50.874;4.762;2023-12-07T03:38:27;89.30;;;20.30;;
19965;SDS011;10144;50.874;4.762;2023-12-07T03:40:59;105.47;;;21.43;;
19965;SDS011;10144;50.874;4.762;2023-12-07T03:43:28;100.70;;;22.60;;
19965;SDS011;10144;50.874;4.762;2023-12-07T03:45:55;107.00;;;22.23;;
19965;SDS011;10144;50.874;4.762;2023-12-07T03:48:23;109.83;;;23.00;;
19965;SDS011;10144;50.874;4.762;2023-12-07T03:50:50;115.50;;;24.07;;
19965;SDS011;10144;50.874;4.762;2023-12-07T03:53:18;112.07;;;23.87;;
19965;SDS011;10144;50.874;4.762;2023-12-07T03:58:15;105.43;;;22.53;;
19965;SDS011;10144;50.874;4.762;2023-12-07T04:00:47;111.93;;;23.10;;
19965;SDS011;10144;50.874;4.762;2023-12-07T04:03:16;94.30;;;21.77;;
19965;SDS011;10144;50.874;4.762;2023-12-07T04:05:45;90.93;;;20.67;;
19965;SDS011;10144;50.874;4.762;2023-12-07T04:08:16;87.43;;;21.23;;
19965;SDS011;10144;50.874;4.762;2023-12-07T04:10:43;89.10;;;20.97;;
19965;SDS011;10144;50.874;4.762;2023-12-07T04:15:41;89.33;;;21.27;;
19965;SDS011;10144;50.874;4.762;2023-12-07T04:18:07;88.37;;;20.37;;
19965;SDS011;10144;50.874;4.762;2023-12-07T04:20:35;80.80;;;19.03;;
19965;SDS011;10144;50.874;4.762;2023-12-07T04:23:07;78.53;;;19.43;;
19965;SDS011;10144;50.874;4.762;2023-12-07T04:25:36;80.17;;;19.30;;
19965;SDS011;10144;50.874;4.762;2023-12-07T04:30:58;78.13;;;18.83;;
19965;SDS011;10144;50.874;4.762;2023-12-07T04:33:25;81.20;;;19.27;;
19965;SDS011;10144;50.874;4.762;2023-12-07T04:38:22;74.87;;;17.07;;
19965;SDS011;10144;50.874;4.762;2023-12-07T04:43:16;73.80;;;18.33;;
19965;SDS011;10144;50.874;4.762;2023-12-07T04:45:48;68.30;;;18.10;;
19965;SDS011;10144;50.874;4.762;2023-12-07T04:48:17;75.63;;;18.53;;
19965;SDS011;10144;50.874;4.762;2023-12-07T04:50:45;69.43;;;17.43;;
19965;SDS011;10144;50.874;4.762;2023-12-07T04:53:14;60.37;;;16.37;;
19965;SDS011;10144;50.874;4.762;2023-12-07T04:55:41;62.63;;;16.60;;
19965;SDS011;10144;50.874;4.762;2023-12-07T04:58:12;58.87;;;15.13;;
19965;SDS011;10144;50.874;4.762;2023-12-07T05:00:41;58.83;;;16.27;;
19965;SDS011;10144;50.874;4.762;2023-12-07T05:05:35;52.07;;;14.10;;
19965;SDS011;10144;50.874;4.762;2023-12-07T05:08:04;64.40;;;16.00;;
19965;SDS011;10144;50.874;4.762;2023-12-07T05:10:33;53.73;;;15.50;;
19965;SDS011;10144;50.874;4.762;2023-12-07T05:13:01;57.43;;;14.77;;
19965;SDS011;10144;50.874;4.762;2023-12-07T05:15:27;53.30;;;15.90;;
19965;SDS011;10144;50.874;4.762;2023-12-07T05:17:55;52.23;;;14.50;;
19965;SDS011;10144;50.874;4.762;2023-12-07T05:20:29;55.93;;;15.40;;
19965;SDS011;10144;50.874;4.762;2023-12-07T05:25:25;51.93;;;14.97;;
19965;SDS011;10144;50.874;4.762;2023-12-07T05:27:52;62.37;;;15.80;;
19965;SDS011;10144;50.874;4.762;2023-12-07T05:30:21;58.47;;;15.80;;
19965;SDS011;10144;50.874;4.762;2023-12-07T05:32:50;45.23;;;14.63;;
19965;SDS011;10144;50.874;4.762;2023-12-07T05:35:16;47.30;;;14.07;;
19965;SDS011;10144;50.874;4.762;2023-12-07T05:40:10;45.40;;;14.77;;
19965;SDS011;10144;50.874;4.762;2023-12-07T05:45:08;45.17;;;14.40;;
19965;SDS011;10144;50.874;4.762;2023-12-07T05:47:35;43.70;;;14.07;;
19965;SDS011;10144;50.874;4.762;2023-12-07T05:50:07;46.20;;;14.60;;
19965;SDS011;10144;50.874;4.762;2023-12-07T05:52:35;48.77;;;13.80;;
19965;SDS011;10144;50.874;4.762;2023-12-07T05:55:02;45.67;;;14.43;;
19965;SDS011;10144;50.874;4.762;2023-12-07T05:57:29;40.87;;;12.87;;
19965;SDS011;10144;50.874;4.762;2023-12-07T06:02:28;42.07;;;13.17;;
19965;SDS011;10144;50.874;4.762;2023-12-07T06:07:26;42.80;;;13.47;;
19965;SDS011;10144;50.874;4.762;2023-12-07T06:09:51;50.73;;;14.17;;
19965;SDS011;10144;50.874;4.762;2023-12-07T06:12:20;47.77;;;14.30;;
19965;SDS011;10144;50.874;4.762;2023-12-07T06:14:48;45.13;;;13.90;;
19965;SDS011;10144;50.874;4.762;2023-12-07T06:17:22;39.97;;;13.30;;
19965;SDS011;10144;50.874;4.762;2023-12-07T06:19:51;44.73;;;13.53;;
19965;SDS011;10144;50.874;4.762;2023-12-07T06:24:48;36.80;;;12.57;;
19965;SDS011;10144;50.874;4.762;2023-12-07T06:29:46;42.00;;;13.47;;
19965;SDS011;10144;50.874;4.762;2023-12-07T06:34:42;41.13;;;13.43;;
19965;SDS011;10144;50.874;4.762;2023-12-07T06:37:14;39.77;;;13.23;;
19965;SDS011;10144;50.874;4.762;2023-12-07T06:39:40;39.83;;;12.23;;
19965;SDS011;10144;50.874;4.762;2023-12-07T06:42:06;34.00;;;12.30;;
19965;SDS011;10144;50.874;4.762;2023-12-07T06:49:48;37.43;;;11.87;;
19965;SDS011;10144;50.874;4.762;2023-12-07T06:52:14;34.83;;;11.90;;
19965;SDS011;10144;50.874;4.762;2023-12-07T06:57:12;39.77;;;12.97;;
19965;SDS011;10144;50.874;4.762;2023-12-07T06:59:41;40.67;;;12.67;;
19965;SDS011;10144;50.874;4.762;2023-12-07T07:02:06;39.60;;;12.63;;
19965;SDS011;10144;50.874;4.762;2023-12-07T07:07:02;38.77;;;12.77;;
19965;SDS011;10144;50.874;4.762;2023-12-07T07:11:58;39.40;;;12.07;;
19965;SDS011;10144;50.874;4.762;2023-12-07T07:16:56;35.73;;;12.83;;
19965;SDS011;10144;50.874;4.762;2023-12-07T07:21:53;33.97;;;12.00;;
19965;SDS011;10144;50.874;4.762;2023-12-07T07:26:51;37.07;;;12.43;;
19965;SDS011;10144;50.874;4.762;2023-12-07T07:29:18;34.40;;;11.93;;
19965;SDS011;10144;50.874;4.762;2023-12-07T07:31:46;32.50;;;11.60;;
19965;SDS011;10144;50.874;4.762;2023-12-07T07:34:12;34.47;;;12.27;;
19965;SDS011;10144;50.874;4.762;2023-12-07T07:36:40;35.83;;;11.93;;
19965;SDS011;10144;50.874;4.762;2023-12-07T07:39:06;41.60;;;12.03;;
19965;SDS011;10144;50.874;4.762;2023-12-07T07:41:33;30.77;;;11.40;;
19965;SDS011;10144;50.874;4.762;2023-12-07T07:43:59;33.27;;;10.97;;
19965;SDS011;10144;50.874;4.762;2023-12-07T07:46:25;37.60;;;12.97;;
19965;SDS011;10144;50.874;4.762;2023-12-07T07:48:50;34.83;;;12.13;;
19965;SDS011;10144;50.874;4.762;2023-12-07T07:51:16;33.27;;;12.00;;
19965;SDS011;10144;50.874;4.762;2023-12-07T07:53:42;35.23;;;11.87;;
19965;SDS011;10144;50.874;4.762;2023-12-07T07:56:08;37.40;;;11.33;;
19965;SDS011;10144;50.874;4.762;2023-12-07T07:58:35;34.80;;;12.30;;
19965;SDS011;10144;50.874;4.762;2023-12-07T08:01:01;39.53;;;13.23;;
19965;SDS011;10144;50.874;4.762;2023-12-07T08:03:27;38.73;;;11.90;;
19965;SDS011;10144;50.874;4.762;2023-12-07T08:05:52;38.50;;;11.87;;
19965;SDS011;10144;50.874;4.762;2023-12-07T08:08:18;34.50;;;11.60;;
19965;SDS011;10144;50.874;4.762;2023-12-07T08:10:45;35.43;;;12.73;;
19965;SDS011;10144;50.874;4.762;2023-12-07T08:13:10;29.97;;;11.77;;
19965;SDS011;10144;50.874;4.762;2023-12-07T08:15:36;36.20;;;12.37;;
19965;SDS011;10144;50.874;4.762;2023-12-07T08:18:02;40.23;;;13.10;;
19965;SDS011;10144;50.874;4.762;2023-12-07T08:20:27;35.30;;;12.10;;
19965;SDS011;10144;50.874;4.762;2023-12-07T08:22:53;33.47;;;11.57;;
19965;SDS011;10144;50.874;4.762;2023-12-07T08:25:19;33.33;;;11.63;;
19965;SDS011;10144;50.874;4.762;2023-12-07T08:27:44;27.03;;;10.47;;
19965;SDS011;10144;50.874;4.762;2023-12-07T08:30:11;27.87;;;10.77;;
19965;SDS011;10144;50.874;4.762;2023-12-07T08:32:37;21.83;;;9.53;;
19965;SDS011;10144;50.874;4.762;2023-12-07T08:35:03;21.23;;;8.50;;
19965;SDS011;10144;50.874;4.762;2023-12-07T08:37:31;25.30;;;9.13;;
19965;SDS011;10144;50.874;4.762;2023-12-07T08:39:57;19.40;;;8.70;;
19965;SDS011;10144;50.874;4.762;2023-12-07T08:42:23;22.63;;;7.60;;
19965;SDS011;10144;50.874;4.762;2023-12-07T08:44:49;20.63;;;8.63;;
19965;SDS011;10144;50.874;4.762;2023-12-07T08:47:14;19.90;;;8.20;;
19965;SDS011;10144;50.874;4.762;2023-12-07T08:49:40;18.23;;;7.70;;
19965;SDS011;10144;50.874;4.762;2023-12-07T08:52:05;16.07;;;7.83;;
19965;SDS011;10144;50.874;4.762;2023-12-07T08:54:31;19.23;;;8.40;;
19965;SDS011;10144;50.874;4.762;2023-12-07T08:56:57;18.47;;;8.00;;
19965;SDS011;10144;50.874;4.762;2023-12-07T08:59:23;22.13;;;8.23;;
19965;SDS011;10144;50.874;4.762;2023-12-07T09:01:48;19.97;;;8.13;;
19965;SDS011;10144;50.874;4.762;2023-12-07T09:04:14;17.27;;;7.43;;
19965;SDS011;10144;50.874;4.762;2023-12-07T09:06:40;19.07;;;7.30;;
19965;SDS011;10144;50.874;4.762;2023-12-07T09:09:05;21.13;;;7.53;;
19965;SDS011;10144;50.874;4.762;2023-12-07T09:11:31;21.77;;;7.73;;
19965;SDS011;10144;50.874;4.762;2023-12-07T09:13:57;19.00;;;7.60;;
19965;SDS011;10144;50.874;4.762;2023-12-07T09:16:23;19.53;;;7.40;;
19965;SDS011;10144;50.874;4.762;2023-12-07T09:18:50;20.70;;;8.10;;
19965;SDS011;10144;50.874;4.762;2023-12-07T09:21:16;18.17;;;7.70;;
19965;SDS011;10144;50.874;4.762;2023-12-07T09:23:42;20.57;;;8.63;;
19965;SDS011;10144;50.874;4.762;2023-12-07T09:26:08;22.27;;;8.43;;
19965;SDS011;10144;50.874;4.762;2023-12-07T09:28:33;21.17;;;8.80;;
19965;SDS011;10144;50.874;4.762;2023-12-07T09:30:59;22.47;;;9.30;;
19965;SDS011;10144;50.874;4.762;2023-12-07T09:33:25;23.97;;;8.57;;
19965;SDS011;10144;50.874;4.762;2023-12-07T09:35:51;26.33;;;8.83;;
19965;SDS011;10144;50.874;4.762;2023-12-07T09:38:16;20.43;;;9.43;;
19965;SDS011;10144;50.874;4.762;2023-12-07T09:40:42;25.77;;;9.00;;
19965;SDS011;10144;50.874;4.762;2023-12-07T09:43:09;19.90;;;8.80;;
19965;SDS011;10144;50.874;4.762;2023-12-07T09:45:35;21.40;;;8.97;;
19965;SDS011;10144;50.874;4.762;2023-12-07T09:48:00;21.43;;;9.07;;
19965;SDS011;10144;50.874;4.762;2023-12-07T09:50:27;22.67;;;8.90;;
19965;SDS011;10144;50.874;4.762;2023-12-07T09:52:55;20.53;;;8.73;;
19965;SDS011;10144;50.874;4.762;2023-12-07T09:55:23;21.57;;;8.83;;
19965;SDS011;10144;50.874;4.762;2023-12-07T09:57:52;22.17;;;8.93;;
19965;SDS011;10144;50.874;4.762;2023-12-07T10:00:21;23.37;;;8.63;;
19965;SDS011;10144;50.874;4.762;2023-12-07T10:02:47;20.60;;;8.53;;
19965;SDS011;10144;50.874;4.762;2023-12-07T10:05:13;22.77;;;7.97;;
19965;SDS011;10144;50.874;4.762;2023-12-07T10:07:42;19.83;;;9.00;;
19965;SDS011;10144;50.874;4.762;2023-12-07T10:10:09;27.27;;;8.83;;
19965;SDS011;10144;50.874;4.762;2023-12-07T10:12:59;21.40;;;8.47;;
19965;SDS011;10144;50.874;4.762;2023-12-07T10:15:24;18.07;;;7.27;;
19965;SDS011;10144;50.874;4.762;2023-12-07T10:17:51;16.60;;;7.37;;
19965;SDS011;10144;50.874;4.762;2023-12-07T10:20:18;17.10;;;6.90;;
19965;SDS011;10144;50.874;4.762;2023-12-07T10:22:48;14.60;;;7.00;;
19965;SDS011;10144;50.874;4.762;2023-12-07T10:25:32;17.47;;;6.83;;
19965;SDS011;10144;50.874;4.762;2023-12-07T10:28:03;16.60;;;7.07;;
19965;SDS011;10144;50.874;4.762;2023-12-07T10:30:31;16.27;;;7.20;;
19965;SDS011;10144;50.874;4.762;2023-12-07T10:32:57;20.60;;;7.23;;
19965;SDS011;10144;50.874;4.762;2023-12-07T10:35:23;16.10;;;7.23;;
19965;SDS011;10144;50.874;4.762;2023-12-07T10:37:49;22.60;;;7.43;;
19965;SDS011;10144;50.874;4.762;2023-12-07T10:40:14;13.53;;;6.67;;
19965;SDS011;10144;50.874;4.762;2023-12-07T10:42:40;17.60;;;7.50;;
19965;SDS011;10144;50.874;4.762;2023-12-07T10:45:07;18.57;;;7.40;;
19965;SDS011;10144;50.874;4.762;2023-12-07T10:47:35;21.40;;;7.50;;
19965;SDS011;10144;50.874;4.762;2023-12-07T10:50:02;17.80;;;7.80;;
19965;SDS011;10144;50.874;4.762;2023-12-07T10:52:44;16.03;;;7.00;;
19965;SDS011;10144;50.874;4.762;2023-12-07T10:55:16;16.70;;;7.50;;
19965;SDS011;10144;50.874;4.762;2023-12-07T10:57:46;19.50;;;7.30;;
19965;SDS011;10144;50.874;4.762;2023-12-07T11:00:13;16.50;;;6.93;;
19965;SDS011;10144;50.874;4.762;2023-12-07T11:02:39;20.53;;;7.37;;
19965;SDS011;10144;50.874;4.762;2023-12-07T11:05:06;21.43;;;7.47;;
19965;SDS011;10144;50.874;4.762;2023-12-07T11:07:36;20.30;;;7.57;;
19965;SDS011;10144;50.874;4.762;2023-12-07T11:10:10;19.17;;;7.40;;
19965;SDS011;10144;50.874;4.762;2023-12-07T11:12:49;21.97;;;7.33;;
19965;SDS011;10144;50.874;4.762;2023-12-07T11:15:19;18.00;;;7.23;;
19965;SDS011;10144;50.874;4.762;2023-12-07T11:17:52;17.03;;;6.70;;
19965;SDS011;10144;50.874;4.762;2023-12-07T11:20:39;18.37;;;7.93;;
19965;SDS011;10144;50.874;4.762;2023-12-07T11:23:17;20.77;;;7.73;;
19965;SDS011;10144;50.874;4.762;2023-12-07T11:25:49;17.43;;;7.37;;
19965;SDS011;10144;50.874;4.762;2023-12-07T11:28:17;15.03;;;6.87;;
19965;SDS011;10144;50.874;4.762;2023-12-07T11:30:46;14.20;;;6.63;;
19965;SDS011;10144;50.874;4.762;2023-12-07T11:33:12;16.33;;;6.80;;
19965;SDS011;10144;50.874;4.762;2023-12-07T11:38:29;14.47;;;6.70;;
19965;SDS011;10144;50.874;4.762;2023-12-07T11:40:55;17.70;;;6.60;;
19965;SDS011;10144;50.874;4.762;2023-12-07T11:46:07;18.80;;;6.83;;
19965;SDS011;10144;50.874;4.762;2023-12-07T11:48:33;15.53;;;6.43;;
19965;SDS011;10144;50.874;4.762;2023-12-07T11:53:35;15.37;;;6.43;;
19965;SDS011;10144;50.874;4.762;2023-12-07T11:58:32;13.47;;;5.23;;
19965;SDS011;10144;50.874;4.762;2023-12-07T12:01:12;16.73;;;6.67;;
19965;SDS011;10144;50.874;4.762;2023-12-07T12:03:39;13.77;;;6.07;;
19965;SDS011;10144;50.874;4.762;2023-12-07T12:06:05;16.43;;;6.13;;
19965;SDS011;10144;50.874;4.762;2023-12-07T12:08:35;15.37;;;6.70;;
19965;SDS011;10144;50.874;4.762;2023-12-07T12:11:00;15.97;;;6.73;;
19965;SDS011;10144;50.874;4.762;2023-12-07T12:13:27;16.37;;;6.70;;
19965;SDS011;10144;50.874;4.762;2023-12-07T12:15:56;20.27;;;7.87;;
19965;SDS011;10144;50.874;4.762;2023-12-07T12:18:23;18.07;;;7.00;;
19965;SDS011;10144;50.874;4.762;2023-12-07T12:20:51;17.97;;;7.10;;
19965;SDS011;10144;50.874;4.762;2023-12-07T12:23:17;19.33;;;6.93;;
19965;SDS011;10144;50.874;4.762;2023-12-07T12:25:44;17.57;;;7.00;;
19965;SDS011;10144;50.874;4.762;2023-12-07T12:28:10;17.67;;;7.17;;
19965;SDS011;10144;50.874;4.762;2023-12-07T12:30:39;18.77;;;7.73;;
19965;SDS011;10144;50.874;4.762;2023-12-07T12:33:04;16.63;;;6.67;;
19965;SDS011;10144;50.874;4.762;2023-12-07T12:35:30;17.43;;;6.87;;
19965;SDS011;10144;50.874;4.762;2023-12-07T12:37:57;17.37;;;6.77;;
19965;SDS011;10144;50.874;4.762;2023-12-07T12:40:23;20.63;;;7.77;;
19965;SDS011;10144;50.874;4.762;2023-12-07T12:42:52;21.77;;;7.30;;
19965;SDS011;10144;50.874;4.762;2023-12-07T12:45:18;17.33;;;6.50;;
19965;SDS011;10144;50.874;4.762;2023-12-07T12:47:45;16.17;;;6.57;;
19965;SDS011;10144;50.874;4.762;2023-12-07T12:50:12;15.87;;;6.33;;
19965;SDS011;10144;50.874;4.762;2023-12-07T12:52:57;17.13;;;6.70;;
19965;SDS011;10144;50.874;4.762;2023-12-07T12:55:25;16.57;;;6.67;;
19965;SDS011;10144;50.874;4.762;2023-12-07T12:57:51;15.80;;;6.27;;
19965;SDS011;10144;50.874;4.762;2023-12-07T13:00:17;22.57;;;6.93;;
19965;SDS011;10144;50.874;4.762;2023-12-07T13:02:44;21.93;;;7.70;;
19965;SDS011;10144;50.874;4.762;2023-12-07T13:05:10;19.63;;;7.23;;
19965;SDS011;10144;50.874;4.762;2023-12-07T13:07:35;17.23;;;6.80;;
19965;SDS011;10144;50.874;4.762;2023-12-07T13:10:01;20.17;;;7.03;;
19965;SDS011;10144;50.874;4.762;2023-12-07T13:12:27;15.23;;;6.67;;
19965;SDS011;10144;50.874;4.762;2023-12-07T13:14:53;19.60;;;6.90;;
19965;SDS011;10144;50.874;4.762;2023-12-07T13:17:19;18.53;;;7.00;;
19965;SDS011;10144;50.874;4.762;2023-12-07T13:19:45;16.50;;;6.43;;
19965;SDS011;10144;50.874;4.762;2023-12-07T13:22:11;18.63;;;6.83;;
19965;SDS011;10144;50.874;4.762;2023-12-07T13:24:36;16.00;;;7.00;;
19965;SDS011;10144;50.874;4.762;2023-12-07T13:27:03;15.83;;;6.60;;
19965;SDS011;10144;50.874;4.762;2023-12-07T13:29:28;14.83;;;6.23;;
19965;SDS011;10144;50.874;4.762;2023-12-07T13:31:54;16.97;;;6.30;;
19965;SDS011;10144;50.874;4.762;2023-12-07T13:34:20;17.20;;;6.23;;
19965;SDS011;10144;50.874;4.762;2023-12-07T13:36:46;16.03;;;6.53;;
19965;SDS011;10144;50.874;4.762;2023-12-07T13:39:12;16.23;;;6.60;;
19965;SDS011;10144;50.874;4.762;2023-12-07T13:41:38;14.80;;;6.10;;
19965;SDS011;10144;50.874;4.762;2023-12-07T13:44:04;14.53;;;6.00;;
19965;SDS011;10144;50.874;4.762;2023-12-07T13:46:30;16.63;;;6.00;;
19965;SDS011;10144;50.874;4.762;2023-12-07T13:48:58;17.73;;;6.50;;
19965;SDS011;10144;50.874;4.762;2023-12-07T13:51:23;15.40;;;6.20;;
19965;SDS011;10144;50.874;4.762;2023-12-07T13:53:49;17.47;;;6.67;;
19965;SDS011;10144;50.874;4.762;2023-12-07T13:56:20;18.77;;;7.63;;
19965;SDS011;10144;50.874;4.762;2023-12-07T13:58:46;16.57;;;6.80;;
19965;SDS011;10144;50.874;4.762;2023-12-07T14:01:11;15.57;;;6.40;;
19965;SDS011;10144;50.874;4.762;2023-12-07T14:03:37;13.90;;;6.00;;
19965;SDS011;10144;50.874;4.762;2023-12-07T14:06:03;17.27;;;6.87;;
19965;SDS011;10144;50.874;4.762;2023-12-07T14:08:29;14.87;;;6.70;;
19965;SDS011;10144;50.874;4.762;2023-12-07T14:10:56;17.17;;;6.30;;
19965;SDS011;10144;50.874;4.762;2023-12-07T14:13:22;14.60;;;6.30;;
19965;SDS011;10144;50.874;4.762;2023-12-07T14:15:49;14.80;;;6.73;;
19965;SDS011;10144;50.874;4.762;2023-12-07T14:18:15;16.20;;;6.93;;
19965;SDS011;10144;50.874;4.762;2023-12-07T14:20:42;13.73;;;5.77;;
19965;SDS011;10144;50.874;4.762;2023-12-07T14:23:08;15.30;;;6.43;;
19965;SDS011;10144;50.874;4.762;2023-12-07T14:25:35;16.97;;;6.87;;
19965;SDS011;10144;50.874;4.762;2023-12-07T14:28:01;16.70;;;6.60;;
19965;SDS011;10144;50.874;4.762;2023-12-07T14:30:26;16.50;;;6.67;;
19965;SDS011;10144;50.874;4.762;2023-12-07T14:32:52;19.23;;;6.20;;
19965;SDS011;10144;50.874;4.762;2023-12-07T14:35:18;17.10;;;6.63;;
19965;SDS011;10144;50.874;4.762;2023-12-07T14:37:44;14.87;;;6.50;;
19965;SDS011;10144;50.874;4.762;2023-12-07T14:40:10;20.63;;;6.80;;
19965;SDS011;10144;50.874;4.762;2023-12-07T14:42:39;15.60;;;7.00;;
19965;SDS011;10144;50.874;4.762;2023-12-07T14:45:05;19.40;;;6.73;;
19965;SDS011;10144;50.874;4.762;2023-12-07T14:47:31;17.13;;;6.63;;
19965;SDS011;10144;50.874;4.762;2023-12-07T14:49:57;18.10;;;6.87;;
19965;SDS011;10144;50.874;4.762;2023-12-07T14:52:23;16.90;;;6.57;;
19965;SDS011;10144;50.874;4.762;2023-12-07T14:54:49;18.40;;;6.40;;
19965;SDS011;10144;50.874;4.762;2023-12-07T14:57:15;18.93;;;7.03;;
19965;SDS011;10144;50.874;4.762;2023-12-07T14:59:40;16.47;;;6.53;;
19965;SDS011;10144;50.874;4.762;2023-12-07T15:02:06;18.13;;;6.30;;
19965;SDS011;10144;50.874;4.762;2023-12-07T15:04:32;16.03;;;6.33;;
19965;SDS011;10144;50.874;4.762;2023-12-07T15:06:57;15.50;;;6.57;;
19965;SDS011;10144;50.874;4.762;2023-12-07T15:09:23;15.63;;;6.10;;
19965;SDS011;10144;50.874;4.762;2023-12-07T15:11:50;19.00;;;6.67;;
19965;SDS011;10144;50.874;4.762;2023-12-07T15:14:15;15.90;;;6.13;;
19965;SDS011;10144;50.874;4.762;2023-12-07T15:16:41;16.90;;;6.30;;
19965;SDS011;10144;50.874;4.762;2023-12-07T15:19:07;17.10;;;6.37;;
19965;SDS011;10144;50.874;4.762;2023-12-07T15:21:33;16.73;;;6.27;;
19965;SDS011;10144;50.874;4.762;2023-12-07T15:23:59;19.23;;;6.10;;
19965;SDS011;10144;50.874;4.762;2023-12-07T15:26:25;16.57;;;5.87;;
19965;SDS011;10144;50.874;4.762;2023-12-07T15:28:51;16.97;;;6.40;;
19965;SDS011;10144;50.874;4.762;2023-12-07T15:31:17;17.10;;;6.30;;
19965;SDS011;10144;50.874;4.762;2023-12-07T15:33:44;15.73;;;6.10;;
19965;SDS011;10144;50.874;4.762;2023-12-07T15:36:10;17.77;;;6.57;;
19965;SDS011;10144;50.874;4.762;2023-12-07T15:38:35;13.33;;;5.57;;
19965;SDS011;10144;50.874;4.762;2023-12-07T15:41:02;14.00;;;6.17;;
19965;SDS011;10144;50.874;4.762;2023-12-07T15:43:30;15.90;;;5.60;;
19965;SDS011;10144;50.874;4.762;2023-12-07T15:45:59;13.20;;;5.70;;
19965;SDS011;10144;50.874;4.762;2023-12-07T15:48:24;14.50;;;5.87;;
19965;SDS011;10144;50.874;4.762;2023-12-07T15:50:51;13.73;;;6.10;;
19965;SDS011;10144;50.874;4.762;2023-12-07T15:53:16;14.10;;;5.93;;
19965;SDS011;10144;50.874;4.762;2023-12-07T15:55:46;13.47;;;5.60;;
19965;SDS011;10144;50.874;4.762;2023-12-07T15:58:15;15.50;;;5.50;;
19965;SDS011;10144;50.874;4.762;2023-12-07T16:03:15;13.87;;;5.43;;
19965;SDS011;10144;50.874;4.762;2023-12-07T16:05:44;14.70;;;5.93;;
19965;SDS011;10144;50.874;4.762;2023-12-07T16:08:14;15.77;;;5.90;;
19965;SDS011;10144;50.874;4.762;2023-12-07T16:10:50;16.23;;;6.30;;
19965;SDS011;10144;50.874;4.762;2023-12-07T16:13:19;17.97;;;6.50;;
19965;SDS011;10144;50.874;4.762;2023-12-07T16:15:45;12.13;;;5.63;;
19965;SDS011;10144;50.874;4.762;2023-12-07T16:18:10;17.87;;;6.50;;
19965;SDS011;10144;50.874;4.762;2023-12-07T16:20:36;15.50;;;6.10;;